Malibu, CA

5:57 AM PST on December 20, 2014 (GMT -0800)
Camarillo | Change Station
CLOSE
Current Station
Airport
Location: Camarillo,
Elevation: 75 ft
Nearby Weather Stations
Active Advisory: High Surf Advisory

Elev 75 ft 34.21 °N, 119.09 °W | Updated 1 hour ago

Mostly Cloudy
Mostly Cloudy
49 °F
Feels Like 49 °F
N
0
Wind Variable Wind from North

Today
High -- | Low -- °F
--% Chance of Precip.
Yesterday
High -- | Low -- °F
Precip. -- in
6:56 AM 4:49 PM
Waning Crescent, 3% visible
Pressure 30.16 in
Visibility 9.0 miles
Clouds Scattered Clouds 1900 ft
Mostly Cloudy 2900 ft
Dew Point 46 °F
Humidity 90%
Rainfall 0.00 in
Snow Depth Not available.
UV 0 out of 12
Pollen 4.00 out of 12
Air Quality Not available.
Flu Activity Not available.
METAR KCMA 201255Z 00000KT 9SM SCT019 BKN029 09/08 A3013 RMK AO2 SLP213 T00940078

More Conditions Fewer Conditions

Pressure 30.16 in
Visibility 9.0 miles
Clouds Scattered Clouds 1900 ft
Mostly Cloudy 2900 ft
Dew Point 46 °F
Humidity 90%
Rainfall 0.00 in
Snow Depth Not available.
UV 0 out of 12
Pollen 4.00 out of 12
Air Quality Not available.
Flu Activity Not available.
METAR KCMA 201255Z 00000KT 9SM SCT019 BKN029 09/08 A3013 RMK AO2 SLP213 T00940078

More Conditions Fewer Conditions

10-Day Weather Forecast

Almanac

Astronomy

Dec. 20, 2014 Rise Set
Actual Time
Civil Twilight
Nautical Twilight
Astronomical Twilight
Moon
Length of Visible Light
Length of Day
Tomorrow will be .
, % of the Moon is Illuminated

Today's Extremes

State Highs State Lows

Community

WunderPhotos

Upload Photos

1,779,171 photos uploaded!

WunderBlogs® & News

Nearby

Air Quality

  Air Quality AQ Index Pollutant
Not available.

Snow Depth

Station Depth Elevation

Earthquake Activity

City Distance Mag. Time & Date
Minimum magnitude displayed is 2.5.

Coastal Water Temperatures

Place Temperature

Nearby Weather Stations